sensor_id;sensor_type;location;lat;lon;timestamp;temperature;humidity
32217;DHT22;67098;51.140;4.088;2023-01-29T00:02:17;3.20;90.60
32217;DHT22;67098;51.140;4.088;2023-01-29T00:04:43;3.20;90.40
32217;DHT22;67098;51.140;4.088;2023-01-29T00:07:08;3.30;90.40
32217;DHT22;67098;51.140;4.088;2023-01-29T00:09:34;3.50;89.70
32217;DHT22;67098;51.140;4.088;2023-01-29T00:12:00;3.50;89.60
32217;DHT22;67098;51.140;4.088;2023-01-29T00:14:26;3.50;89.90
32217;DHT22;67098;51.140;4.088;2023-01-29T00:16:52;3.50;89.60
32217;DHT22;67098;51.140;4.088;2023-01-29T00:19:18;3.60;89.50
32217;DHT22;67098;51.140;4.088;2023-01-29T00:21:44;3.60;89.10
32217;DHT22;67098;51.140;4.088;2023-01-29T00:24:10;3.40;89.30
32217;DHT22;67098;51.140;4.088;2023-01-29T00:26:36;3.30;89.60
32217;DHT22;67098;51.140;4.088;2023-01-29T00:29:04;3.30;89.60
32217;DHT22;67098;51.140;4.088;2023-01-29T00:31:30;3.30;89.90
32217;DHT22;67098;51.140;4.088;2023-01-29T00:33:56;3.30;89.70
32217;DHT22;67098;51.140;4.088;2023-01-29T00:36:24;3.30;89.80
32217;DHT22;67098;51.140;4.088;2023-01-29T00:38:57;3.30;89.30
32217;DHT22;67098;51.140;4.088;2023-01-29T00:41:29;3.30;89.20
32217;DHT22;67098;51.140;4.088;2023-01-29T00:44:13;3.30;89.50
32217;DHT22;67098;51.140;4.088;2023-01-29T00:46:57;3.30;89.40
32217;DHT22;67098;51.140;4.088;2023-01-29T00:49:23;3.30;89.60
32217;DHT22;67098;51.140;4.088;2023-01-29T00:51:48;3.30;89.40
32217;DHT22;67098;51.140;4.088;2023-01-29T00:54:35;3.40;89.10
32217;DHT22;67098;51.140;4.088;2023-01-29T00:57:01;3.40;88.80
32217;DHT22;67098;51.140;4.088;2023-01-29T00:59:28;3.30;89.10
32217;DHT22;67098;51.140;4.088;2023-01-29T01:01:53;3.30;89.40
32217;DHT22;67098;51.140;4.088;2023-01-29T01:04:38;3.30;89.90
32217;DHT22;67098;51.140;4.088;2023-01-29T01:07:04;3.30;90.00
32217;DHT22;67098;51.140;4.088;2023-01-29T01:09:30;3.40;90.00
32217;DHT22;67098;51.140;4.088;2023-01-29T01:12:14;3.40;90.10
32217;DHT22;67098;51.140;4.088;2023-01-29T01:14:40;3.50;90.30
32217;DHT22;67098;51.140;4.088;2023-01-29T01:17:08;3.60;90.20
32217;DHT22;67098;51.140;4.088;2023-01-29T01:19:34;3.60;90.70
32217;DHT22;67098;51.140;4.088;2023-01-29T01:22:00;3.70;90.80
32217;DHT22;67098;51.140;4.088;2023-01-29T01:24:25;3.80;90.70
32217;DHT22;67098;51.140;4.088;2023-01-29T01:26:51;3.90;91.00
32217;DHT22;67098;51.140;4.088;2023-01-29T01:29:17;4.00;90.90
32217;DHT22;67098;51.140;4.088;2023-01-29T01:31:42;4.00;90.80
32217;DHT22;67098;51.140;4.088;2023-01-29T01:34:08;4.10;90.70
32217;DHT22;67098;51.140;4.088;2023-01-29T01:36:33;4.20;90.40
32217;DHT22;67098;51.140;4.088;2023-01-29T01:38:59;4.30;90.50
32217;DHT22;67098;51.140;4.088;2023-01-29T01:41:25;4.20;90.50
32217;DHT22;67098;51.140;4.088;2023-01-29T01:44:02;4.20;91.00
32217;DHT22;67098;51.140;4.088;2023-01-29T01:46:29;4.30;90.70
32217;DHT22;67098;51.140;4.088;2023-01-29T01:51:31;4.40;90.80
32217;DHT22;67098;51.140;4.088;2023-01-29T01:54:05;4.40;90.90
32217;DHT22;67098;51.140;4.088;2023-01-29T01:56:34;4.50;90.80
32217;DHT22;67098;51.140;4.088;2023-01-29T01:59:16;4.50;90.80
32217;DHT22;67098;51.140;4.088;2023-01-29T02:01:46;4.40;90.90
32217;DHT22;67098;51.140;4.088;2023-01-29T02:04:20;4.40;90.80
32217;DHT22;67098;51.140;4.088;2023-01-29T02:07:07;4.50;90.90
32217;DHT22;67098;51.140;4.088;2023-01-29T02:09:59;4.50;91.00
32217;DHT22;67098;51.140;4.088;2023-01-29T02:12:25;4.70;90.70
32217;DHT22;67098;51.140;4.088;2023-01-29T02:14:53;4.80;90.40
32217;DHT22;67098;51.140;4.088;2023-01-29T02:17:19;4.80;90.80
32217;DHT22;67098;51.140;4.088;2023-01-29T02:25:46;4.70;90.90
32217;DHT22;67098;51.140;4.088;2023-01-29T02:42:27;4.90;90.60
32217;DHT22;67098;51.140;4.088;2023-01-29T02:45:02;4.90;90.70
32217;DHT22;67098;51.140;4.088;2023-01-29T02:47:41;4.80;91.00
32217;DHT22;67098;51.140;4.088;2023-01-29T02:50:14;4.90;90.90
32217;DHT22;67098;51.140;4.088;2023-01-29T02:52:49;5.00;90.60
32217;DHT22;67098;51.140;4.088;2023-01-29T02:55:43;5.00;90.70
32217;DHT22;67098;51.140;4.088;2023-01-29T02:58:26;5.00;90.60
32217;DHT22;67098;51.140;4.088;2023-01-29T03:00:57;5.10;90.60
32217;DHT22;67098;51.140;4.088;2023-01-29T03:03:32;5.00;90.80
32217;DHT22;67098;51.140;4.088;2023-01-29T03:06:10;4.90;91.10
32217;DHT22;67098;51.140;4.088;2023-01-29T03:08:57;5.00;90.80
32217;DHT22;67098;51.140;4.088;2023-01-29T03:11:23;5.10;90.60
32217;DHT22;67098;51.140;4.088;2023-01-29T03:13:54;5.10;90.70
32217;DHT22;67098;51.140;4.088;2023-01-29T03:19:01;5.10;90.80
32217;DHT22;67098;51.140;4.088;2023-01-29T03:21:54;5.10;90.70
32217;DHT22;67098;51.140;4.088;2023-01-29T03:24:40;5.20;90.80
32217;DHT22;67098;51.140;4.088;2023-01-29T03:27:44;5.20;90.80
32217;DHT22;67098;51.140;4.088;2023-01-29T03:30:32;5.20;90.50
32217;DHT22;67098;51.140;4.088;2023-01-29T03:33:20;5.30;90.30
32217;DHT22;67098;51.140;4.088;2023-01-29T03:36:09;5.30;90.30
32217;DHT22;67098;51.140;4.088;2023-01-29T03:38:37;5.40;90.00
32217;DHT22;67098;51.140;4.088;2023-01-29T03:41:09;5.40;90.00
32217;DHT22;67098;51.140;4.088;2023-01-29T03:49:47;5.20;90.30
32217;DHT22;67098;51.140;4.088;2023-01-29T03:52:26;5.20;90.50
32217;DHT22;67098;51.140;4.088;2023-01-29T03:55:04;5.20;90.40
32217;DHT22;67098;51.140;4.088;2023-01-29T04:00:40;5.10;90.60
32217;DHT22;67098;51.140;4.088;2023-01-29T04:03:22;5.30;90.30
32217;DHT22;67098;51.140;4.088;2023-01-29T04:06:19;5.40;89.70
32217;DHT22;67098;51.140;4.088;2023-01-29T04:11:17;5.30;90.00
32217;DHT22;67098;51.140;4.088;2023-01-29T04:13:45;5.20;90.10
32217;DHT22;67098;51.140;4.088;2023-01-29T04:16:20;5.10;90.40
32217;DHT22;67098;51.140;4.088;2023-01-29T04:18:47;5.20;90.50
32217;DHT22;67098;51.140;4.088;2023-01-29T04:21:14;5.20;90.50
32217;DHT22;67098;51.140;4.088;2023-01-29T04:23:40;5.30;90.10
32217;DHT22;67098;51.140;4.088;2023-01-29T04:31:47;5.30;90.30
32217;DHT22;67098;51.140;4.088;2023-01-29T04:34:18;5.40;90.20
32217;DHT22;67098;51.140;4.088;2023-01-29T04:37:03;5.30;90.30
32217;DHT22;67098;51.140;4.088;2023-01-29T04:39:55;5.40;90.10
32217;DHT22;67098;51.140;4.088;2023-01-29T04:42:32;5.50;89.90
32217;DHT22;67098;51.140;4.088;2023-01-29T04:45:04;5.60;89.70
32217;DHT22;67098;51.140;4.088;2023-01-29T04:48:27;5.60;89.60
32217;DHT22;67098;51.140;4.088;2023-01-29T04:55:50;5.20;90.50
32217;DHT22;67098;51.140;4.088;2023-01-29T05:00:59;5.40;90.10
32217;DHT22;67098;51.140;4.088;2023-01-29T05:03:26;5.30;90.20
32217;DHT22;67098;51.140;4.088;2023-01-29T05:05:53;5.30;90.40
32217;DHT22;67098;51.140;4.088;2023-01-29T05:08:21;5.30;90.40
32217;DHT22;67098;51.140;4.088;2023-01-29T05:10:49;5.40;90.20
32217;DHT22;67098;51.140;4.088;2023-01-29T05:13:18;5.40;90.30
32217;DHT22;67098;51.140;4.088;2023-01-29T05:15:51;5.40;90.20
32217;DHT22;67098;51.140;4.088;2023-01-29T05:18:19;5.50;90.20
32217;DHT22;67098;51.140;4.088;2023-01-29T05:20:46;5.50;90.00
32217;DHT22;67098;51.140;4.088;2023-01-29T05:23:19;5.50;90.20
32217;DHT22;67098;51.140;4.088;2023-01-29T05:25:45;5.50;90.00
32217;DHT22;67098;51.140;4.088;2023-01-29T05:28:11;5.60;89.50
32217;DHT22;67098;51.140;4.088;2023-01-29T05:30:48;5.50;90.00
32217;DHT22;67098;51.140;4.088;2023-01-29T05:33:17;5.50;89.70
32217;DHT22;67098;51.140;4.088;2023-01-29T05:35:43;5.50;89.50
32217;DHT22;67098;51.140;4.088;2023-01-29T05:38:09;5.60;89.40
32217;DHT22;67098;51.140;4.088;2023-01-29T05:40:36;5.60;89.70
32217;DHT22;67098;51.140;4.088;2023-01-29T05:43:01;5.50;90.00
32217;DHT22;67098;51.140;4.088;2023-01-29T05:45:27;5.50;90.10
32217;DHT22;67098;51.140;4.088;2023-01-29T05:47:57;5.60;89.50
32217;DHT22;67098;51.140;4.088;2023-01-29T05:50:23;5.60;89.40
32217;DHT22;67098;51.140;4.088;2023-01-29T05:52:49;5.60;89.60
32217;DHT22;67098;51.140;4.088;2023-01-29T05:55:20;5.50;89.90
32217;DHT22;67098;51.140;4.088;2023-01-29T05:57:45;5.60;89.40
32217;DHT22;67098;51.140;4.088;2023-01-29T06:00:11;5.50;89.50
32217;DHT22;67098;51.140;4.088;2023-01-29T06:02:38;5.50;90.00
32217;DHT22;67098;51.140;4.088;2023-01-29T06:05:03;5.40;90.20
32217;DHT22;67098;51.140;4.088;2023-01-29T06:07:29;5.50;90.00
32217;DHT22;67098;51.140;4.088;2023-01-29T06:09:55;5.50;89.70
32217;DHT22;67098;51.140;4.088;2023-01-29T06:12:20;5.40;90.20
32217;DHT22;67098;51.140;4.088;2023-01-29T06:14:46;5.40;90.30
32217;DHT22;67098;51.140;4.088;2023-01-29T06:17:12;5.40;90.40
32217;DHT22;67098;51.140;4.088;2023-01-29T06:19:37;5.50;90.20
32217;DHT22;67098;51.140;4.088;2023-01-29T06:22:03;5.50;90.20
32217;DHT22;67098;51.140;4.088;2023-01-29T06:24:29;5.50;90.10
32217;DHT22;67098;51.140;4.088;2023-01-29T06:26:54;5.60;89.90
32217;DHT22;67098;51.140;4.088;2023-01-29T06:29:20;5.60;89.20
32217;DHT22;67098;51.140;4.088;2023-01-29T06:31:46;5.50;89.70
32217;DHT22;67098;51.140;4.088;2023-01-29T06:34:11;5.60;89.60
32217;DHT22;67098;51.140;4.088;2023-01-29T06:36:37;5.60;89.30
32217;DHT22;67098;51.140;4.088;2023-01-29T06:39:03;5.60;89.50
32217;DHT22;67098;51.140;4.088;2023-01-29T06:41:29;5.60;89.50
32217;DHT22;67098;51.140;4.088;2023-01-29T06:43:54;5.60;89.60
32217;DHT22;67098;51.140;4.088;2023-01-29T06:46:20;5.60;89.90
32217;DHT22;67098;51.140;4.088;2023-01-29T06:48:46;5.60;89.90
32217;DHT22;67098;51.140;4.088;2023-01-29T06:51:11;5.50;90.10
32217;DHT22;67098;51.140;4.088;2023-01-29T06:53:37;5.50;90.10
32217;DHT22;67098;51.140;4.088;2023-01-29T06:56:04;5.50;90.10
32217;DHT22;67098;51.140;4.088;2023-01-29T06:58:30;5.60;89.90
32217;DHT22;67098;51.140;4.088;2023-01-29T07:01:07;5.60;89.60
32217;DHT22;67098;51.140;4.088;2023-01-29T07:03:33;5.50;90.00
32217;DHT22;67098;51.140;4.088;2023-01-29T07:05:58;5.50;90.00
32217;DHT22;67098;51.140;4.088;2023-01-29T07:08:24;5.40;90.30
32217;DHT22;67098;51.140;4.088;2023-01-29T07:10:49;5.40;90.00
32217;DHT22;67098;51.140;4.088;2023-01-29T07:13:15;5.40;90.00
32217;DHT22;67098;51.140;4.088;2023-01-29T07:15:41;5.40;90.10
32217;DHT22;67098;51.140;4.088;2023-01-29T07:18:07;5.40;90.00
32217;DHT22;67098;51.140;4.088;2023-01-29T07:20:41;5.40;90.40
32217;DHT22;67098;51.140;4.088;2023-01-29T07:23:11;5.50;90.10
32217;DHT22;67098;51.140;4.088;2023-01-29T07:25:37;5.50;90.00
32217;DHT22;67098;51.140;4.088;2023-01-29T07:28:03;5.50;89.80
32217;DHT22;67098;51.140;4.088;2023-01-29T07:30:29;5.60;89.70
32217;DHT22;67098;51.140;4.088;2023-01-29T07:33:06;5.60;89.70
32217;DHT22;67098;51.140;4.088;2023-01-29T07:35:36;5.60;89.60
32217;DHT22;67098;51.140;4.088;2023-01-29T07:38:02;5.70;89.40
32217;DHT22;67098;51.140;4.088;2023-01-29T07:40:28;5.70;89.40
32217;DHT22;67098;51.140;4.088;2023-01-29T07:43:03;5.70;89.50
32217;DHT22;67098;51.140;4.088;2023-01-29T07:45:29;5.60;89.80
32217;DHT22;67098;51.140;4.088;2023-01-29T07:47:55;5.60;89.70
32217;DHT22;67098;51.140;4.088;2023-01-29T07:50:22;5.50;90.00
32217;DHT22;67098;51.140;4.088;2023-01-29T07:52:48;5.50;90.10
32217;DHT22;67098;51.140;4.088;2023-01-29T07:55:15;5.60;89.70
32217;DHT22;67098;51.140;4.088;2023-01-29T07:57:41;5.60;90.00
32217;DHT22;67098;51.140;4.088;2023-01-29T08:00:07;5.60;90.00
32217;DHT22;67098;51.140;4.088;2023-01-29T08:02:33;5.50;90.10
32217;DHT22;67098;51.140;4.088;2023-01-29T08:04:59;5.50;90.10
32217;DHT22;67098;51.140;4.088;2023-01-29T08:07:24;5.60;90.00
32217;DHT22;67098;51.140;4.088;2023-01-29T08:09:50;5.60;89.90
32217;DHT22;67098;51.140;4.088;2023-01-29T08:12:15;5.60;89.90
32217;DHT22;67098;51.140;4.088;2023-01-29T08:14:41;5.70;89.90
32217;DHT22;67098;51.140;4.088;2023-01-29T08:17:06;5.80;89.70
32217;DHT22;67098;51.140;4.088;2023-01-29T08:19:32;5.80;89.60
32217;DHT22;67098;51.140;4.088;2023-01-29T08:21:58;5.80;89.40
32217;DHT22;67098;51.140;4.088;2023-01-29T08:24:23;5.80;89.50
32217;DHT22;67098;51.140;4.088;2023-01-29T08:26:49;5.80;89.50
32217;DHT22;67098;51.140;4.088;2023-01-29T08:29:14;5.80;89.50
32217;DHT22;67098;51.140;4.088;2023-01-29T08:31:40;5.80;89.40
32217;DHT22;67098;51.140;4.088;2023-01-29T08:34:06;5.80;89.40
32217;DHT22;67098;51.140;4.088;2023-01-29T08:36:31;5.80;89.60
32217;DHT22;67098;51.140;4.088;2023-01-29T08:38:58;5.80;89.70
32217;DHT22;67098;51.140;4.088;2023-01-29T08:41:24;5.80;89.60
32217;DHT22;67098;51.140;4.088;2023-01-29T08:43:49;5.80;89.80
32217;DHT22;67098;51.140;4.088;2023-01-29T08:46:15;5.80;89.80
32217;DHT22;67098;51.140;4.088;2023-01-29T08:48:42;5.80;89.80
32217;DHT22;67098;51.140;4.088;2023-01-29T08:51:07;5.70;90.10
32217;DHT22;67098;51.140;4.088;2023-01-29T08:53:33;5.60;90.20
32217;DHT22;67098;51.140;4.088;2023-01-29T08:55:59;5.70;90.10
32217;DHT22;67098;51.140;4.088;2023-01-29T08:58:24;5.80;90.00
32217;DHT22;67098;51.140;4.088;2023-01-29T09:00:50;5.80;90.00
32217;DHT22;67098;51.140;4.088;2023-01-29T09:03:16;5.90;89.90
32217;DHT22;67098;51.140;4.088;2023-01-29T09:05:41;5.90;89.90
32217;DHT22;67098;51.140;4.088;2023-01-29T09:08:08;5.90;89.90
32217;DHT22;67098;51.140;4.088;2023-01-29T09:10:34;5.80;90.00
32217;DHT22;67098;51.140;4.088;2023-01-29T09:13:00;5.80;89.90
32217;DHT22;67098;51.140;4.088;2023-01-29T09:15:25;5.80;90.00
32217;DHT22;67098;51.140;4.088;2023-01-29T09:17:51;5.80;90.00
32217;DHT22;67098;51.140;4.088;2023-01-29T09:20:17;6.00;89.50
32217;DHT22;67098;51.140;4.088;2023-01-29T09:22:44;5.90;89.60
32217;DHT22;67098;51.140;4.088;2023-01-29T09:25:10;5.90;89.90
32217;DHT22;67098;51.140;4.088;2023-01-29T09:27:36;5.90;89.90
32217;DHT22;67098;51.140;4.088;2023-01-29T09:30:03;5.90;89.70
32217;DHT22;67098;51.140;4.088;2023-01-29T09:32:29;5.90;90.00
32217;DHT22;67098;51.140;4.088;2023-01-29T09:34:57;5.90;90.10
32217;DHT22;67098;51.140;4.088;2023-01-29T09:37:23;5.80;90.10
32217;DHT22;67098;51.140;4.088;2023-01-29T09:39:49;5.90;90.00
32217;DHT22;67098;51.140;4.088;2023-01-29T09:42:20;5.90;90.00
32217;DHT22;67098;51.140;4.088;2023-01-29T09:47:34;6.00;90.00
32217;DHT22;67098;51.140;4.088;2023-01-29T09:52:42;6.00;90.00
32217;DHT22;67098;51.140;4.088;2023-01-29T09:55:28;6.10;90.10
32217;DHT22;67098;51.140;4.088;2023-01-29T09:58:02;6.20;89.90
32217;DHT22;67098;51.140;4.088;2023-01-29T10:00:38;6.30;89.80
32217;DHT22;67098;51.140;4.088;2023-01-29T10:20:51;6.40;89.40
32217;DHT22;67098;51.140;4.088;2023-01-29T10:25:50;6.70;88.90
32217;DHT22;67098;51.140;4.088;2023-01-29T10:28:24;6.80;88.90
32217;DHT22;67098;51.140;4.088;2023-01-29T10:31:03;6.90;88.40
32217;DHT22;67098;51.140;4.088;2023-01-29T10:36:06;6.90;88.40
32217;DHT22;67098;51.140;4.088;2023-01-29T10:44:03;7.20;87.80
32217;DHT22;67098;51.140;4.088;2023-01-29T10:52:25;7.50;87.30
32217;DHT22;67098;51.140;4.088;2023-01-29T10:57:55;7.70;87.10
32217;DHT22;67098;51.140;4.088;2023-01-29T11:00:34;7.80;86.90
32217;DHT22;67098;51.140;4.088;2023-01-29T11:08:22;7.90;86.50
32217;DHT22;67098;51.140;4.088;2023-01-29T11:13:21;7.90;86.10
32217;DHT22;67098;51.140;4.088;2023-01-29T11:15:50;8.00;86.00
32217;DHT22;67098;51.140;4.088;2023-01-29T11:18:17;8.10;85.90
32217;DHT22;67098;51.140;4.088;2023-01-29T11:20:44;8.10;86.10
32217;DHT22;67098;51.140;4.088;2023-01-29T11:23:28;8.20;85.80
32217;DHT22;67098;51.140;4.088;2023-01-29T11:25:56;8.50;85.50
32217;DHT22;67098;51.140;4.088;2023-01-29T11:28:45;8.80;85.00
32217;DHT22;67098;51.140;4.088;2023-01-29T11:31:19;9.20;83.80
32217;DHT22;67098;51.140;4.088;2023-01-29T11:33:46;9.40;83.60
32217;DHT22;67098;51.140;4.088;2023-01-29T11:39:14;9.40;82.30
32217;DHT22;67098;51.140;4.088;2023-01-29T11:42:03;9.50;82.10
32217;DHT22;67098;51.140;4.088;2023-01-29T11:47:27;9.60;82.50
32217;DHT22;67098;51.140;4.088;2023-01-29T11:49:55;9.70;81.00
32217;DHT22;67098;51.140;4.088;2023-01-29T11:52:24;9.60;81.40
32217;DHT22;67098;51.140;4.088;2023-01-29T11:54:58;9.60;80.60
32217;DHT22;67098;51.140;4.088;2023-01-29T11:57:31;9.50;81.20
32217;DHT22;67098;51.140;4.088;2023-01-29T12:00:04;9.40;81.00
32217;DHT22;67098;51.140;4.088;2023-01-29T12:02:35;9.40;80.80
32217;DHT22;67098;51.140;4.088;2023-01-29T12:05:25;9.20;81.90
32217;DHT22;67098;51.140;4.088;2023-01-29T12:07:53;9.10;81.60
32217;DHT22;67098;51.140;4.088;2023-01-29T12:15:42;9.30;82.00
32217;DHT22;67098;51.140;4.088;2023-01-29T12:20:47;9.30;82.10
32217;DHT22;67098;51.140;4.088;2023-01-29T12:26:14;9.40;81.20
32217;DHT22;67098;51.140;4.088;2023-01-29T12:31:44;9.20;81.50
32217;DHT22;67098;51.140;4.088;2023-01-29T12:34:24;9.30;80.50
32217;DHT22;67098;51.140;4.088;2023-01-29T12:36:55;9.40;80.90
32217;DHT22;67098;51.140;4.088;2023-01-29T12:39:23;9.40;81.30
32217;DHT22;67098;51.140;4.088;2023-01-29T12:41:52;9.30;81.00
32217;DHT22;67098;51.140;4.088;2023-01-29T12:44:27;9.30;80.90
32217;DHT22;67098;51.140;4.088;2023-01-29T12:46:59;9.40;80.60
32217;DHT22;67098;51.140;4.088;2023-01-29T12:49:31;9.40;80.60
32217;DHT22;67098;51.140;4.088;2023-01-29T12:52:15;9.30;80.90
32217;DHT22;67098;51.140;4.088;2023-01-29T12:54:57;9.30;80.70
32217;DHT22;67098;51.140;4.088;2023-01-29T13:00:18;9.00;81.40
32217;DHT22;67098;51.140;4.088;2023-01-29T13:05:43;8.70;82.40
32217;DHT22;67098;51.140;4.088;2023-01-29T13:08:21;8.60;81.80
32217;DHT22;67098;51.140;4.088;2023-01-29T13:10:50;8.50;82.20
32217;DHT22;67098;51.140;4.088;2023-01-29T13:13:47;8.60;82.30
32217;DHT22;67098;51.140;4.088;2023-01-29T13:16:20;8.50;82.80
32217;DHT22;67098;51.140;4.088;2023-01-29T13:21:34;8.60;82.20
32217;DHT22;67098;51.140;4.088;2023-01-29T13:24:19;8.40;82.70
32217;DHT22;67098;51.140;4.088;2023-01-29T13:26:46;8.50;82.80
32217;DHT22;67098;51.140;4.088;2023-01-29T13:29:32;8.60;83.00
32217;DHT22;67098;51.140;4.088;2023-01-29T13:32:00;8.60;82.80
32217;DHT22;67098;51.140;4.088;2023-01-29T13:34:43;8.60;82.40
32217;DHT22;67098;51.140;4.088;2023-01-29T13:37:16;8.80;81.60
32217;DHT22;67098;51.140;4.088;2023-01-29T13:39:48;8.80;81.70
32217;DHT22;67098;51.140;4.088;2023-01-29T13:42:37;8.70;81.70
32217;DHT22;67098;51.140;4.088;2023-01-29T13:45:06;8.60;81.40
32217;DHT22;67098;51.140;4.088;2023-01-29T13:47:35;8.50;82.00
32217;DHT22;67098;51.140;4.088;2023-01-29T13:50:04;8.40;82.70
32217;DHT22;67098;51.140;4.088;2023-01-29T13:52:36;8.50;82.70
32217;DHT22;67098;51.140;4.088;2023-01-29T14:06:00;8.30;82.40
32217;DHT22;67098;51.140;4.088;2023-01-29T14:08:43;8.40;82.60
32217;DHT22;67098;51.140;4.088;2023-01-29T14:13:38;8.30;83.40
32217;DHT22;67098;51.140;4.088;2023-01-29T14:18:31;8.30;83.10
32217;DHT22;67098;51.140;4.088;2023-01-29T14:21:05;8.30;83.40
32217;DHT22;67098;51.140;4.088;2023-01-29T14:23:47;8.40;83.20
32217;DHT22;67098;51.140;4.088;2023-01-29T14:31:48;7.90;84.40
32217;DHT22;67098;51.140;4.088;2023-01-29T14:36:41;7.90;84.60
32217;DHT22;67098;51.140;4.088;2023-01-29T14:39:35;8.00;84.40
32217;DHT22;67098;51.140;4.088;2023-01-29T14:42:12;8.10;84.00
32217;DHT22;67098;51.140;4.088;2023-01-29T14:50:00;7.90;84.50
32217;DHT22;67098;51.140;4.088;2023-01-29T14:52:36;7.80;84.90
32217;DHT22;67098;51.140;4.088;2023-01-29T14:55:06;7.80;85.00
32217;DHT22;67098;51.140;4.088;2023-01-29T14:57:34;7.80;85.10
32217;DHT22;67098;51.140;4.088;2023-01-29T15:00:05;7.70;85.60
32217;DHT22;67098;51.140;4.088;2023-01-29T15:02:38;7.70;85.70
32217;DHT22;67098;51.140;4.088;2023-01-29T15:05:19;7.70;86.00
32217;DHT22;67098;51.140;4.088;2023-01-29T15:08:02;7.70;86.00
32217;DHT22;67098;51.140;4.088;2023-01-29T15:10:35;7.70;86.00
32217;DHT22;67098;51.140;4.088;2023-01-29T15:13:34;7.90;86.00
32217;DHT22;67098;51.140;4.088;2023-01-29T15:16:08;7.90;85.90
32217;DHT22;67098;51.140;4.088;2023-01-29T15:18:40;7.90;86.20
32217;DHT22;67098;51.140;4.088;2023-01-29T15:21:13;7.90;86.00
32217;DHT22;67098;51.140;4.088;2023-01-29T15:23:39;7.90;86.20
32217;DHT22;67098;51.140;4.088;2023-01-29T15:26:12;8.00;86.30
32217;DHT22;67098;51.140;4.088;2023-01-29T15:28:41;8.00;86.00
32217;DHT22;67098;51.140;4.088;2023-01-29T15:31:17;7.90;86.50
32217;DHT22;67098;51.140;4.088;2023-01-29T15:33:45;7.90;86.80
32217;DHT22;67098;51.140;4.088;2023-01-29T15:36:21;7.80;86.90
32217;DHT22;67098;51.140;4.088;2023-01-29T15:38:47;7.80;86.70
32217;DHT22;67098;51.140;4.088;2023-01-29T15:41:17;7.70;87.50
32217;DHT22;67098;51.140;4.088;2023-01-29T15:43:46;7.60;87.80
32217;DHT22;67098;51.140;4.088;2023-01-29T15:46:31;7.50;88.30
32217;DHT22;67098;51.140;4.088;2023-01-29T15:49:01;7.50;88.40
32217;DHT22;67098;51.140;4.088;2023-01-29T15:51:30;7.50;89.00
32217;DHT22;67098;51.140;4.088;2023-01-29T15:54:01;7.50;88.70
32217;DHT22;67098;51.140;4.088;2023-01-29T15:56:35;7.60;88.60
32217;DHT22;67098;51.140;4.088;2023-01-29T15:59:03;7.60;88.90
32217;DHT22;67098;51.140;4.088;2023-01-29T16:01:30;7.50;89.40
32217;DHT22;67098;51.140;4.088;2023-01-29T16:03:58;7.50;89.40
32217;DHT22;67098;51.140;4.088;2023-01-29T16:06:34;7.50;89.30
32217;DHT22;67098;51.140;4.088;2023-01-29T16:09:01;7.40;89.70
32217;DHT22;67098;51.140;4.088;2023-01-29T16:11:28;7.50;89.60
32217;DHT22;67098;51.140;4.088;2023-01-29T16:13:54;7.40;89.90
32217;DHT22;67098;51.140;4.088;2023-01-29T16:16:24;7.40;90.00
32217;DHT22;67098;51.140;4.088;2023-01-29T16:18:50;7.30;90.20
32217;DHT22;67098;51.140;4.088;2023-01-29T16:21:32;7.40;90.30
32217;DHT22;67098;51.140;4.088;2023-01-29T16:24:11;7.40;90.40
32217;DHT22;67098;51.140;4.088;2023-01-29T16:26:45;7.40;90.30
32217;DHT22;67098;51.140;4.088;2023-01-29T16:29:14;7.40;90.30
32217;DHT22;67098;51.140;4.088;2023-01-29T16:31:41;7.50;90.20
32217;DHT22;67098;51.140;4.088;2023-01-29T16:34:24;7.50;90.30
32217;DHT22;67098;51.140;4.088;2023-01-29T16:36:51;7.30;90.70
32217;DHT22;67098;51.140;4.088;2023-01-29T16:39:20;7.30;90.80
32217;DHT22;67098;51.140;4.088;2023-01-29T16:50:02;7.20;91.40
32217;DHT22;67098;51.140;4.088;2023-01-29T16:52:32;7.30;91.20
32217;DHT22;67098;51.140;4.088;2023-01-29T16:55:22;7.30;91.10
32217;DHT22;67098;51.140;4.088;2023-01-29T16:57:53;7.40;90.90
32217;DHT22;67098;51.140;4.088;2023-01-29T17:00:25;7.30;90.90
32217;DHT22;67098;51.140;4.088;2023-01-29T17:02:57;7.30;90.80
32217;DHT22;67098;51.140;4.088;2023-01-29T17:05:29;7.30;90.70
32217;DHT22;67098;51.140;4.088;2023-01-29T17:07:57;7.30;90.60
32217;DHT22;67098;51.140;4.088;2023-01-29T17:10:24;7.20;90.90
32217;DHT22;67098;51.140;4.088;2023-01-29T17:13:03;7.20;90.70
32217;DHT22;67098;51.140;4.088;2023-01-29T17:18:02;7.20;90.80
32217;DHT22;67098;51.140;4.088;2023-01-29T17:20:29;7.30;90.80
32217;DHT22;67098;51.140;4.088;2023-01-29T17:22:54;7.30;90.70
32217;DHT22;67098;51.140;4.088;2023-01-29T17:25:20;7.30;90.80
32217;DHT22;67098;51.140;4.088;2023-01-29T17:27:46;7.30;90.80
32217;DHT22;67098;51.140;4.088;2023-01-29T17:30:20;7.30;90.80
32217;DHT22;67098;51.140;4.088;2023-01-29T17:32:46;7.20;90.90
32217;DHT22;67098;51.140;4.088;2023-01-29T17:35:13;7.10;91.10
32217;DHT22;67098;51.140;4.088;2023-01-29T17:37:39;7.10;91.10
32217;DHT22;67098;51.140;4.088;2023-01-29T17:40:26;7.20;91.00
32217;DHT22;67098;51.140;4.088;2023-01-29T17:42:52;7.30;90.90
32217;DHT22;67098;51.140;4.088;2023-01-29T17:45:18;7.30;90.90
32217;DHT22;67098;51.140;4.088;2023-01-29T17:47:44;7.20;91.10
32217;DHT22;67098;51.140;4.088;2023-01-29T17:50:30;7.10;91.20
32217;DHT22;67098;51.140;4.088;2023-01-29T17:52:56;7.10;91.40
32217;DHT22;67098;51.140;4.088;2023-01-29T17:55:22;7.00;91.60
32217;DHT22;67098;51.140;4.088;2023-01-29T17:57:47;7.00;91.60
32217;DHT22;67098;51.140;4.088;2023-01-29T18:00:19;7.00;91.80
32217;DHT22;67098;51.140;4.088;2023-01-29T18:02:45;6.90;92.10
32217;DHT22;67098;51.140;4.088;2023-01-29T18:05:11;6.90;92.00
32217;DHT22;67098;51.140;4.088;2023-01-29T18:07:37;6.70;92.50
32217;DHT22;67098;51.140;4.088;2023-01-29T18:10:04;6.80;92.40
32217;DHT22;67098;51.140;4.088;2023-01-29T18:12:30;6.90;92.20
32217;DHT22;67098;51.140;4.088;2023-01-29T18:14:55;6.90;92.40
32217;DHT22;67098;51.140;4.088;2023-01-29T18:17:21;7.10;92.20
32217;DHT22;67098;51.140;4.088;2023-01-29T18:19:47;7.00;92.30
32217;DHT22;67098;51.140;4.088;2023-01-29T18:22:13;7.00;92.40
32217;DHT22;67098;51.140;4.088;2023-01-29T18:24:39;6.90;92.70
32217;DHT22;67098;51.140;4.088;2023-01-29T18:27:05;7.00;92.70
32217;DHT22;67098;51.140;4.088;2023-01-29T18:29:30;7.10;92.60
32217;DHT22;67098;51.140;4.088;2023-01-29T18:31:56;7.20;92.50
32217;DHT22;67098;51.140;4.088;2023-01-29T18:34:22;7.20;92.50
32217;DHT22;67098;51.140;4.088;2023-01-29T18:36:47;7.20;92.50
32217;DHT22;67098;51.140;4.088;2023-01-29T18:39:16;7.20;92.70
32217;DHT22;67098;51.140;4.088;2023-01-29T18:41:41;7.30;92.70
32217;DHT22;67098;51.140;4.088;2023-01-29T18:44:09;7.20;92.80
32217;DHT22;67098;51.140;4.088;2023-01-29T18:46:34;7.20;92.90
32217;DHT22;67098;51.140;4.088;2023-01-29T18:49:00;7.20;92.90
32217;DHT22;67098;51.140;4.088;2023-01-29T18:51:26;7.30;92.90
32217;DHT22;67098;51.140;4.088;2023-01-29T18:53:51;7.20;93.20
32217;DHT22;67098;51.140;4.088;2023-01-29T18:56:17;7.10;93.40